sensor_id;sensor_type;location;lat;lon;timestamp;P1;durP1;ratioP1;P2;durP2;ratioP2
63406;SDS011;49543;45.892;10.838;2023-05-07T06:22:17;6.38;;;5.78;;
63406;SDS011;49543;45.892;10.838;2023-05-07T06:24:43;5.78;;;5.28;;
63406;SDS011;49543;45.892;10.838;2023-05-07T06:27:08;5.70;;;5.20;;
63406;SDS011;49543;45.892;10.838;2023-05-07T06:29:34;5.90;;;5.30;;
63406;SDS011;49543;45.892;10.838;2023-05-07T06:32:06;6.18;;;5.47;;
63406;SDS011;49543;45.892;10.838;2023-05-07T06:34:32;5.55;;;5.10;;
63406;SDS011;49543;45.892;10.838;2023-05-07T06:36:58;6.15;;;5.45;;
63406;SDS011;49543;45.892;10.838;2023-05-07T06:39:23;5.80;;;5.30;;
63406;SDS011;49543;45.892;10.838;2023-05-07T06:41:49;7.05;;;5.68;;
63406;SDS011;49543;45.892;10.838;2023-05-07T06:44:14;5.95;;;5.45;;
63406;SDS011;49543;45.892;10.838;2023-05-07T06:46:40;5.43;;;4.95;;
63406;SDS011;49543;45.892;10.838;2023-05-07T06:49:06;6.75;;;4.80;;
63406;SDS011;49543;45.892;10.838;2023-05-07T06:51:32;5.60;;;5.10;;
63406;SDS011;49543;45.892;10.838;2023-05-07T06:53:57;5.45;;;5.05;;
63406;SDS011;49543;45.892;10.838;2023-05-07T06:56:23;5.57;;;5.10;;
63406;SDS011;49543;45.892;10.838;2023-05-07T06:58:48;5.43;;;4.93;;
63406;SDS011;49543;45.892;10.838;2023-05-07T07:01:14;6.38;;;5.30;;
63406;SDS011;49543;45.892;10.838;2023-05-07T07:03:40;6.55;;;5.03;;
63406;SDS011;49543;45.892;10.838;2023-05-07T07:06:05;5.45;;;5.05;;
63406;SDS011;49543;45.892;10.838;2023-05-07T07:08:31;7.63;;;5.18;;
63406;SDS011;49543;45.892;10.838;2023-05-07T07:10:57;5.18;;;4.78;;
63406;SDS011;49543;45.892;10.838;2023-05-07T07:13:22;5.10;;;4.68;;
63406;SDS011;49543;45.892;10.838;2023-05-07T07:15:47;4.43;;;4.03;;
63406;SDS011;49543;45.892;10.838;2023-05-07T07:18:13;5.05;;;4.65;;
63406;SDS011;49543;45.892;10.838;2023-05-07T07:20:38;5.30;;;4.80;;
63406;SDS011;49543;45.892;10.838;2023-05-07T07:23:04;5.85;;;5.35;;
63406;SDS011;49543;45.892;10.838;2023-05-07T07:25:29;9.52;;;8.52;;
63406;SDS011;49543;45.892;10.838;2023-05-07T07:27:55;8.60;;;7.70;;
63406;SDS011;49543;45.892;10.838;2023-05-07T07:30:20;5.32;;;4.82;;
63406;SDS011;49543;45.892;10.838;2023-05-07T07:32:45;5.60;;;5.05;;
63406;SDS011;49543;45.892;10.838;2023-05-07T07:35:11;5.32;;;4.90;;
63406;SDS011;49543;45.892;10.838;2023-05-07T07:37:36;4.97;;;4.53;;
63406;SDS011;49543;45.892;10.838;2023-05-07T07:40:02;5.18;;;4.78;;
63406;SDS011;49543;45.892;10.838;2023-05-07T07:42:28;5.25;;;4.85;;
63406;SDS011;49543;45.892;10.838;2023-05-07T07:44:54;4.65;;;4.25;;
63406;SDS011;49543;45.892;10.838;2023-05-07T07:47:20;5.72;;;5.07;;
63406;SDS011;49543;45.892;10.838;2023-05-07T07:49:45;6.50;;;5.90;;
63406;SDS011;49543;45.892;10.838;2023-05-07T07:52:10;5.53;;;5.13;;
63406;SDS011;49543;45.892;10.838;2023-05-07T07:54:36;5.30;;;4.82;;
63406;SDS011;49543;45.892;10.838;2023-05-07T07:57:01;5.68;;;5.18;;
63406;SDS011;49543;45.892;10.838;2023-05-07T07:59:26;5.57;;;5.07;;
63406;SDS011;49543;45.892;10.838;2023-05-07T08:01:52;5.55;;;5.07;;
63406;SDS011;49543;45.892;10.838;2023-05-07T08:04:20;5.25;;;4.85;;
63406;SDS011;49543;45.892;10.838;2023-05-07T08:06:46;5.00;;;4.60;;
63406;SDS011;49543;45.892;10.838;2023-05-07T08:09:11;5.60;;;5.10;;
63406;SDS011;49543;45.892;10.838;2023-05-07T08:11:37;7.40;;;5.55;;
63406;SDS011;49543;45.892;10.838;2023-05-07T08:14:03;5.50;;;5.00;;
63406;SDS011;49543;45.892;10.838;2023-05-07T08:16:29;6.07;;;5.35;;
63406;SDS011;49543;45.892;10.838;2023-05-07T08:18:54;5.07;;;4.68;;
63406;SDS011;49543;45.892;10.838;2023-05-07T08:21:20;5.13;;;4.72;;
63406;SDS011;49543;45.892;10.838;2023-05-07T08:23:45;5.15;;;4.65;;
63406;SDS011;49543;45.892;10.838;2023-05-07T08:26:11;5.13;;;4.72;;
63406;SDS011;49543;45.892;10.838;2023-05-07T08:28:36;6.63;;;5.25;;
63406;SDS011;49543;45.892;10.838;2023-05-07T08:31:02;5.60;;;5.03;;
63406;SDS011;49543;45.892;10.838;2023-05-07T08:33:27;7.03;;;6.07;;
63406;SDS011;49543;45.892;10.838;2023-05-07T08:35:53;6.07;;;5.47;;
63406;SDS011;49543;45.892;10.838;2023-05-07T08:38:18;6.70;;;6.10;;
63406;SDS011;49543;45.892;10.838;2023-05-07T08:40:43;6.55;;;5.95;;
63406;SDS011;49543;45.892;10.838;2023-05-07T08:43:11;5.93;;;5.32;;
63406;SDS011;49543;45.892;10.838;2023-05-07T08:45:37;5.30;;;4.90;;
63406;SDS011;49543;45.892;10.838;2023-05-07T08:48:07;6.10;;;5.50;;
63406;SDS011;49543;45.892;10.838;2023-05-07T08:50:38;5.18;;;4.68;;
63406;SDS011;49543;45.892;10.838;2023-05-07T08:53:04;4.70;;;4.30;;
63406;SDS011;49543;45.892;10.838;2023-05-07T08:55:30;5.10;;;4.70;;
63406;SDS011;49543;45.892;10.838;2023-05-07T08:57:55;4.50;;;4.20;;
63406;SDS011;49543;45.892;10.838;2023-05-07T09:00:21;4.25;;;3.95;;
63406;SDS011;49543;45.892;10.838;2023-05-07T09:02:46;4.43;;;4.03;;
63406;SDS011;49543;45.892;10.838;2023-05-07T09:05:12;4.25;;;3.90;;
63406;SDS011;49543;45.892;10.838;2023-05-07T09:07:37;4.65;;;4.25;;
63406;SDS011;49543;45.892;10.838;2023-05-07T09:10:03;4.85;;;4.32;;
63406;SDS011;49543;45.892;10.838;2023-05-07T09:12:29;4.53;;;4.13;;
63406;SDS011;49543;45.892;10.838;2023-05-07T09:14:55;5.00;;;4.50;;
63406;SDS011;49543;45.892;10.838;2023-05-07T09:17:21;4.85;;;4.35;;
63406;SDS011;49543;45.892;10.838;2023-05-07T09:19:46;4.57;;;4.20;;
63406;SDS011;49543;45.892;10.838;2023-05-07T09:22:12;4.65;;;4.35;;
63406;SDS011;49543;45.892;10.838;2023-05-07T09:24:38;4.55;;;4.15;;
63406;SDS011;49543;45.892;10.838;2023-05-07T09:27:04;4.75;;;4.35;;
63406;SDS011;49543;45.892;10.838;2023-05-07T09:29:30;4.20;;;3.90;;
63406;SDS011;49543;45.892;10.838;2023-05-07T09:32:05;4.57;;;4.13;;
63406;SDS011;49543;45.892;10.838;2023-05-07T09:37:00;5.25;;;4.85;;
63406;SDS011;49543;45.892;10.838;2023-05-07T09:39:45;4.70;;;4.28;;
63406;SDS011;49543;45.892;10.838;2023-05-07T09:42:12;5.85;;;4.80;;
63406;SDS011;49543;45.892;10.838;2023-05-07T09:44:40;4.65;;;4.25;;
63406;SDS011;49543;45.892;10.838;2023-05-07T09:47:06;5.03;;;4.47;;
63406;SDS011;49543;45.892;10.838;2023-05-07T09:49:36;4.93;;;4.53;;
63406;SDS011;49543;45.892;10.838;2023-05-07T09:52:03;4.75;;;4.35;;
63406;SDS011;49543;45.892;10.838;2023-05-07T09:54:31;4.80;;;4.40;;
63406;SDS011;49543;45.892;10.838;2023-05-07T09:56:59;5.68;;;5.10;;
63406;SDS011;49543;45.892;10.838;2023-05-07T09:59:27;6.82;;;4.72;;
63406;SDS011;49543;45.892;10.838;2023-05-07T10:01:53;5.55;;;5.03;;
63406;SDS011;49543;45.892;10.838;2023-05-07T10:04:21;4.60;;;4.30;;
63406;SDS011;49543;45.892;10.838;2023-05-07T10:06:47;5.47;;;4.18;;
63406;SDS011;49543;45.892;10.838;2023-05-07T10:09:13;4.80;;;4.35;;
63406;SDS011;49543;45.892;10.838;2023-05-07T10:11:40;4.53;;;4.20;;
63406;SDS011;49543;45.892;10.838;2023-05-07T10:14:06;5.28;;;4.78;;
63406;SDS011;49543;45.892;10.838;2023-05-07T10:16:33;5.00;;;4.60;;
63406;SDS011;49543;45.892;10.838;2023-05-07T10:19:02;5.10;;;4.38;;
63406;SDS011;49543;45.892;10.838;2023-05-07T10:21:29;4.75;;;4.43;;
63406;SDS011;49543;45.892;10.838;2023-05-07T10:23:59;4.78;;;3.92;;
63406;SDS011;49543;45.892;10.838;2023-05-07T10:26:27;5.45;;;4.65;;
63406;SDS011;49543;45.892;10.838;2023-05-07T10:28:56;4.80;;;4.32;;
63406;SDS011;49543;45.892;10.838;2023-05-07T10:34:23;4.65;;;4.20;;
63406;SDS011;49543;45.892;10.838;2023-05-07T10:36:51;4.20;;;3.80;;
63406;SDS011;49543;45.892;10.838;2023-05-07T10:39:17;4.47;;;4.07;;
63406;SDS011;49543;45.892;10.838;2023-05-07T10:41:44;4.20;;;3.80;;
63406;SDS011;49543;45.892;10.838;2023-05-07T10:44:10;4.20;;;3.90;;
63406;SDS011;49543;45.892;10.838;2023-05-07T10:46:36;4.40;;;4.00;;
63406;SDS011;49543;45.892;10.838;2023-05-07T10:51:28;4.75;;;4.30;;
63406;SDS011;49543;45.892;10.838;2023-05-07T10:56:41;4.43;;;4.13;;
63406;SDS011;49543;45.892;10.838;2023-05-07T11:01:49;4.63;;;4.28;;
63406;SDS011;49543;45.892;10.838;2023-05-07T11:04:31;4.82;;;4.30;;
63406;SDS011;49543;45.892;10.838;2023-05-07T11:12:45;5.25;;;4.28;;
63406;SDS011;49543;45.892;10.838;2023-05-07T11:17:53;5.05;;;4.63;;
63406;SDS011;49543;45.892;10.838;2023-05-07T11:20:20;4.75;;;4.35;;
63406;SDS011;49543;45.892;10.838;2023-05-07T11:22:46;4.50;;;4.10;;
63406;SDS011;49543;45.892;10.838;2023-05-07T11:25:17;5.53;;;4.95;;
63406;SDS011;49543;45.892;10.838;2023-05-07T11:27:46;4.85;;;4.30;;
63406;SDS011;49543;45.892;10.838;2023-05-07T11:30:18;4.43;;;4.10;;
63406;SDS011;49543;45.892;10.838;2023-05-07T11:32:44;4.90;;;4.40;;
63406;SDS011;49543;45.892;10.838;2023-05-07T11:35:13;4.80;;;4.40;;
63406;SDS011;49543;45.892;10.838;2023-05-07T11:37:40;3.83;;;3.45;;
63406;SDS011;49543;45.892;10.838;2023-05-07T11:40:07;5.07;;;4.30;;
63406;SDS011;49543;45.892;10.838;2023-05-07T11:42:36;5.20;;;4.80;;
63406;SDS011;49543;45.892;10.838;2023-05-07T11:45:03;5.32;;;4.93;;
63406;SDS011;49543;45.892;10.838;2023-05-07T11:47:30;5.13;;;4.63;;
63406;SDS011;49543;45.892;10.838;2023-05-07T11:49:57;5.22;;;4.82;;
63406;SDS011;49543;45.892;10.838;2023-05-07T11:52:28;4.65;;;4.25;;
63406;SDS011;49543;45.892;10.838;2023-05-07T11:54:54;5.20;;;4.50;;
63406;SDS011;49543;45.892;10.838;2023-05-07T11:57:21;4.40;;;4.00;;
63406;SDS011;49543;45.892;10.838;2023-05-07T11:59:47;4.50;;;4.20;;
63406;SDS011;49543;45.892;10.838;2023-05-07T12:02:16;4.63;;;4.22;;
63406;SDS011;49543;45.892;10.838;2023-05-07T12:04:42;4.25;;;3.95;;
63406;SDS011;49543;45.892;10.838;2023-05-07T12:07:14;4.90;;;4.18;;
63406;SDS011;49543;45.892;10.838;2023-05-07T12:09:43;6.22;;;5.72;;
63406;SDS011;49543;45.892;10.838;2023-05-07T12:12:09;5.18;;;4.78;;
63406;SDS011;49543;45.892;10.838;2023-05-07T12:14:39;5.72;;;5.22;;
63406;SDS011;49543;45.892;10.838;2023-05-07T12:17:05;6.55;;;6.03;;
63406;SDS011;49543;45.892;10.838;2023-05-07T12:19:32;6.03;;;5.53;;
63406;SDS011;49543;45.892;10.838;2023-05-07T12:21:59;6.45;;;5.90;;
63406;SDS011;49543;45.892;10.838;2023-05-07T12:24:25;5.70;;;5.20;;
63406;SDS011;49543;45.892;10.838;2023-05-07T12:26:50;6.80;;;6.22;;
63406;SDS011;49543;45.892;10.838;2023-05-07T12:29:16;7.47;;;6.72;;
63406;SDS011;49543;45.892;10.838;2023-05-07T12:31:41;8.40;;;7.63;;
63406;SDS011;49543;45.892;10.838;2023-05-07T12:34:07;7.10;;;6.38;;
63406;SDS011;49543;45.892;10.838;2023-05-07T12:36:39;10.15;;;9.35;;
63406;SDS011;49543;45.892;10.838;2023-05-07T12:39:08;9.43;;;8.43;;
63406;SDS011;49543;45.892;10.838;2023-05-07T12:44:21;7.72;;;6.95;;
63406;SDS011;49543;45.892;10.838;2023-05-07T12:46:47;8.13;;;7.30;;
63406;SDS011;49543;45.892;10.838;2023-05-07T12:49:13;8.13;;;6.97;;
63406;SDS011;49543;45.892;10.838;2023-05-07T12:51:38;8.50;;;7.70;;
63406;SDS011;49543;45.892;10.838;2023-05-07T12:54:04;9.02;;;8.32;;
63406;SDS011;49543;45.892;10.838;2023-05-07T12:56:35;8.35;;;7.55;;
63406;SDS011;49543;45.892;10.838;2023-05-07T12:59:01;10.25;;;9.25;;
63406;SDS011;49543;45.892;10.838;2023-05-07T13:01:30;10.00;;;8.57;;
63406;SDS011;49543;45.892;10.838;2023-05-07T17:01:42;7.28;;;6.63;;
63406;SDS011;49543;45.892;10.838;2023-05-07T17:04:08;7.10;;;6.50;;
63406;SDS011;49543;45.892;10.838;2023-05-07T17:06:33;7.53;;;6.90;;
63406;SDS011;49543;45.892;10.838;2023-05-07T17:08:59;11.57;;;10.48;;
63406;SDS011;49543;45.892;10.838;2023-05-07T17:11:24;8.93;;;8.05;;
63406;SDS011;49543;45.892;10.838;2023-05-07T17:13:56;8.63;;;7.90;;
63406;SDS011;49543;45.892;10.838;2023-05-07T17:16:21;7.18;;;6.68;;
63406;SDS011;49543;45.892;10.838;2023-05-07T17:18:47;8.07;;;7.28;;
63406;SDS011;49543;45.892;10.838;2023-05-07T17:21:12;8.90;;;7.50;;
63406;SDS011;49543;45.892;10.838;2023-05-07T17:23:37;7.85;;;7.25;;
63406;SDS011;49543;45.892;10.838;2023-05-07T17:26:03;7.75;;;7.05;;
63406;SDS011;49543;45.892;10.838;2023-05-07T17:28:35;7.93;;;7.22;;
63406;SDS011;49543;45.892;10.838;2023-05-07T17:31:01;8.35;;;7.65;;
63406;SDS011;49543;45.892;10.838;2023-05-07T17:33:26;7.95;;;7.30;;
63406;SDS011;49543;45.892;10.838;2023-05-07T17:35:52;9.35;;;8.48;;
63406;SDS011;49543;45.892;10.838;2023-05-07T17:38:18;9.52;;;8.57;;
63406;SDS011;49543;45.892;10.838;2023-05-07T17:40:44;7.60;;;6.95;;
63406;SDS011;49543;45.892;10.838;2023-05-07T17:43:09;8.50;;;7.60;;
63406;SDS011;49543;45.892;10.838;2023-05-07T17:45:35;7.43;;;6.82;;
63406;SDS011;49543;45.892;10.838;2023-05-07T17:48:00;8.30;;;7.53;;
63406;SDS011;49543;45.892;10.838;2023-05-07T17:50:26;7.95;;;7.25;;
63406;SDS011;49543;45.892;10.838;2023-05-07T17:52:52;8.80;;;8.05;;
63406;SDS011;49543;45.892;10.838;2023-05-07T17:55:18;7.80;;;7.03;;
63406;SDS011;49543;45.892;10.838;2023-05-07T17:57:43;8.75;;;8.02;;
63406;SDS011;49543;45.892;10.838;2023-05-07T18:00:09;8.38;;;7.57;;
63406;SDS011;49543;45.892;10.838;2023-05-07T18:02:35;8.05;;;7.35;;
63406;SDS011;49543;45.892;10.838;2023-05-07T18:05:00;7.60;;;6.75;;
63406;SDS011;49543;45.892;10.838;2023-05-07T18:07:26;7.28;;;6.50;;
63406;SDS011;49543;45.892;10.838;2023-05-07T18:09:51;7.20;;;6.50;;
63406;SDS011;49543;45.892;10.838;2023-05-07T18:12:17;7.40;;;6.80;;
63406;SDS011;49543;45.892;10.838;2023-05-07T18:14:42;11.10;;;9.65;;
63406;SDS011;49543;45.892;10.838;2023-05-07T18:17:08;21.90;;;15.82;;
63406;SDS011;49543;45.892;10.838;2023-05-07T18:19:33;24.20;;;19.27;;
63406;SDS011;49543;45.892;10.838;2023-05-07T18:21:59;25.05;;;19.65;;
63406;SDS011;49543;45.892;10.838;2023-05-07T18:24:24;16.88;;;14.98;;
63406;SDS011;49543;45.892;10.838;2023-05-07T18:26:51;13.52;;;12.13;;
63406;SDS011;49543;45.892;10.838;2023-05-07T18:29:16;14.15;;;12.63;;
63406;SDS011;49543;45.892;10.838;2023-05-07T18:31:42;12.32;;;11.13;;
63406;SDS011;49543;45.892;10.838;2023-05-07T18:34:07;12.57;;;11.32;;
63406;SDS011;49543;45.892;10.838;2023-05-07T18:36:34;14.68;;;13.18;;
63406;SDS011;49543;45.892;10.838;2023-05-07T18:38:59;15.07;;;13.63;;
63406;SDS011;49543;45.892;10.838;2023-05-07T18:41:25;14.13;;;12.60;;
63406;SDS011;49543;45.892;10.838;2023-05-07T18:43:50;14.02;;;12.63;;
63406;SDS011;49543;45.892;10.838;2023-05-07T18:46:16;12.88;;;11.18;;
63406;SDS011;49543;45.892;10.838;2023-05-07T18:48:41;14.27;;;10.65;;
63406;SDS011;49543;45.892;10.838;2023-05-07T18:51:07;12.93;;;10.90;;
63406;SDS011;49543;45.892;10.838;2023-05-07T18:53:36;9.55;;;8.57;;
63406;SDS011;49543;45.892;10.838;2023-05-07T18:56:05;12.77;;;9.33;;
63406;SDS011;49543;45.892;10.838;2023-05-07T18:58:31;13.23;;;10.27;;
63406;SDS011;49543;45.892;10.838;2023-05-07T19:00:58;10.88;;;9.52;;
63406;SDS011;49543;45.892;10.838;2023-05-07T19:03:25;14.77;;;10.82;;
63406;SDS011;49543;45.892;10.838;2023-05-07T19:05:51;14.07;;;9.98;;
63406;SDS011;49543;45.892;10.838;2023-05-07T19:08:17;17.85;;;11.43;;
63406;SDS011;49543;45.892;10.838;2023-05-07T19:10:42;16.55;;;11.00;;
63406;SDS011;49543;45.892;10.838;2023-05-07T19:13:09;13.30;;;9.52;;
63406;SDS011;49543;45.892;10.838;2023-05-07T19:15:34;14.20;;;11.02;;
63406;SDS011;49543;45.892;10.838;2023-05-07T19:18:00;16.25;;;11.38;;
63406;SDS011;49543;45.892;10.838;2023-05-07T19:20:25;26.38;;;11.80;;
63406;SDS011;49543;45.892;10.838;2023-05-07T19:22:51;16.90;;;10.75;;
63406;SDS011;49543;45.892;10.838;2023-05-07T19:25:16;17.35;;;11.18;;
63406;SDS011;49543;45.892;10.838;2023-05-07T19:27:42;15.77;;;10.63;;
63406;SDS011;49543;45.892;10.838;2023-05-07T19:30:08;10.38;;;8.85;;
63406;SDS011;49543;45.892;10.838;2023-05-07T19:32:34;12.38;;;8.50;;
63406;SDS011;49543;45.892;10.838;2023-05-07T19:34:59;11.65;;;8.18;;
63406;SDS011;49543;45.892;10.838;2023-05-07T19:37:25;13.80;;;8.90;;
63406;SDS011;49543;45.892;10.838;2023-05-07T19:39:51;10.73;;;9.13;;
63406;SDS011;49543;45.892;10.838;2023-05-07T19:42:17;9.93;;;8.38;;
63406;SDS011;49543;45.892;10.838;2023-05-07T19:44:43;9.23;;;8.23;;
63406;SDS011;49543;45.892;10.838;2023-05-07T19:47:08;9.00;;;7.72;;
63406;SDS011;49543;45.892;10.838;2023-05-07T19:49:34;7.10;;;6.35;;
63406;SDS011;49543;45.892;10.838;2023-05-07T19:52:00;7.88;;;6.90;;
63406;SDS011;49543;45.892;10.838;2023-05-07T19:54:25;7.20;;;6.50;;
63406;SDS011;49543;45.892;10.838;2023-05-07T19:56:51;6.40;;;5.68;;
63406;SDS011;49543;45.892;10.838;2023-05-07T19:59:16;7.60;;;6.32;;
63406;SDS011;49543;45.892;10.838;2023-05-07T20:01:42;7.55;;;5.00;;
63406;SDS011;49543;45.892;10.838;2023-05-07T20:04:07;7.13;;;4.82;;
63406;SDS011;49543;45.892;10.838;2023-05-07T20:06:32;5.88;;;3.95;;
63406;SDS011;49543;45.892;10.838;2023-05-07T20:08:58;6.45;;;3.72;;
63406;SDS011;49543;45.892;10.838;2023-05-07T20:11:24;5.10;;;3.40;;
63406;SDS011;49543;45.892;10.838;2023-05-07T20:13:49;7.72;;;6.82;;
63406;SDS011;49543;45.892;10.838;2023-05-07T20:16:15;6.50;;;5.75;;
63406;SDS011;49543;45.892;10.838;2023-05-07T20:18:40;7.13;;;5.25;;
63406;SDS011;49543;45.892;10.838;2023-05-07T20:21:05;6.13;;;5.30;;
63406;SDS011;49543;45.892;10.838;2023-05-07T20:23:31;7.20;;;5.88;;
63406;SDS011;49543;45.892;10.838;2023-05-07T20:25:57;8.65;;;5.03;;
63406;SDS011;49543;45.892;10.838;2023-05-07T20:28:22;6.22;;;4.80;;
63406;SDS011;49543;45.892;10.838;2023-05-07T20:30:48;5.25;;;4.75;;
63406;SDS011;49543;45.892;10.838;2023-05-07T20:33:13;4.65;;;3.90;;
63406;SDS011;49543;45.892;10.838;2023-05-07T20:35:39;4.93;;;3.83;;
63406;SDS011;49543;45.892;10.838;2023-05-07T20:38:05;5.88;;;4.63;;
63406;SDS011;49543;45.892;10.838;2023-05-07T20:40:31;7.40;;;5.38;;
63406;SDS011;49543;45.892;10.838;2023-05-07T20:42:58;6.72;;;5.80;;
63406;SDS011;49543;45.892;10.838;2023-05-07T20:45:24;6.45;;;5.75;;
63406;SDS011;49543;45.892;10.838;2023-05-07T20:47:49;6.85;;;6.18;;
63406;SDS011;49543;45.892;10.838;2023-05-07T20:50:15;9.18;;;6.20;;
63406;SDS011;49543;45.892;10.838;2023-05-07T20:52:40;7.80;;;5.72;;
63406;SDS011;49543;45.892;10.838;2023-05-07T20:55:06;6.25;;;5.07;;
63406;SDS011;49543;45.892;10.838;2023-05-07T20:57:32;5.18;;;4.78;;
63406;SDS011;49543;45.892;10.838;2023-05-07T20:59:58;5.85;;;4.63;;
63406;SDS011;49543;45.892;10.838;2023-05-07T21:02:23;5.43;;;4.68;;
63406;SDS011;49543;45.892;10.838;2023-05-07T21:04:49;6.72;;;4.70;;
63406;SDS011;49543;45.892;10.838;2023-05-07T21:07:16;7.68;;;4.90;;
63406;SDS011;49543;45.892;10.838;2023-05-07T21:09:41;6.28;;;4.25;;
63406;SDS011;49543;45.892;10.838;2023-05-07T21:12:07;4.90;;;4.15;;
63406;SDS011;49543;45.892;10.838;2023-05-07T21:14:33;6.20;;;4.63;;
63406;SDS011;49543;45.892;10.838;2023-05-07T21:17:00;6.03;;;4.55;;
63406;SDS011;49543;45.892;10.838;2023-05-07T21:19:25;7.53;;;4.70;;
